Raith, Canada
Current Conditions -  °F | °C
As of 2:00 AM on Wednesday 22 Oct 2014 (Local Time) from CYQT Reporting Station
Broken Clouds Broken Clouds  
Wind Chill: 34°   Ceiling: 1200
Heat Index: 34°   Visibility: 15mi
Dew Point: 32°   Wind: 0mph
Humidity: 93%   Direction: NA
Pressure: 30.29"   Gusts: NA
Location:  48.83°N, 89.92°W
Report Text: CYQT 220600Z 00000KT 15SM BKN012 01/00 A3029 RMK SC5 SLP265
Loading
Personal Weather Stations






























Interactive Weather Map
Tropical Storm Tracking
New forecast layout! Learn more

10-Day Weather Forecast

Advertisements
Track Severe Weather on mobile